Resolute Bay Airport
CYRB : now visible

Airfield :











YOU CAN JOIN US ON...

 
LOGIN :

Register | Disclaimer

   EN    FR    IT 

 









Legend :    VFR   Marginal VFR   IFR   Intensive IFR   Very Intensive IFR
Visi :
Ceiling :
>= 8 km
>= 3000ft
5 to 8 km
1000 to 3000 ft
1500m to 5 km
500 to 1000 ft
800 to 1500m
200 to 500 ft
< 800m
< 200 ft
Symbols :   Thunderstorms  Fog  Heavy snow  Heavy precipitations  Wind > 20 kt






- Airport Elevation : 215 ft
- IATA code : YRB


CYRB - Resolute Bay

CURRENT METAR :
  • 271400Z 34004KT 15SM FEW210 M36/M40 A3000 RMK CI2 SLP176

EXPIRED METARs :
  • 271300Z 30003KT 15SM IC FEW020 SCT210 M33/M37 A3000 RMK SC1CI3 SC TR SLP174
  • 271200Z 35003KT 15SM IC FEW022 M32/M36 A3000 RMK SC2 SLP174

TAF TAF CYRB
Valid from the 27 at 12:00 until the 28 at 12:00 UTC


271138Z 2712/2812 34005KT P6SM SKC
BECMG 2719/2721 12010KT
FM280300 18012KT P6SM -SN SCT030 BKN080
TEMPO 2803/2812 5SM -SN BKN030 BKN080 RMK NXT FCST BY 271800Z



MET'MAP, your aeronautical weather chart ! - Copyright ORBIFLY December 2007 - Disclaimer

ORBIFLY MET'MAP TEAM :

Programming & Development : Alexandra Zaïnal
Concept & original design : Baudouin d'Aumeries
Assistance for programming : Marc-Olivier Méhu
Technical & hardware support : Manuel Goepfert

Contact : metmap@orbifly.com




SOURCES & CREDITS :

   NOAA       Earth
Advisory